sensor_id;sensor_type;location;lat;lon;timestamp;P1;durP1;ratioP1;P2;durP2;ratioP2
14933;SDS011;7560;51.364;12.384;2022-09-30T00:00:27;15.27;;;10.82;;
14933;SDS011;7560;51.364;12.384;2022-09-30T00:05:29;16.58;;;11.00;;
14933;SDS011;7560;51.364;12.384;2022-09-30T00:10:31;15.68;;;10.82;;
14933;SDS011;7560;51.364;12.384;2022-09-30T00:15:32;16.38;;;10.75;;
14933;SDS011;7560;51.364;12.384;2022-09-30T00:20:35;15.68;;;10.52;;
14933;SDS011;7560;51.364;12.384;2022-09-30T00:25:37;16.27;;;10.80;;
14933;SDS011;7560;51.364;12.384;2022-09-30T00:30:39;15.10;;;10.32;;
14933;SDS011;7560;51.364;12.384;2022-09-30T00:35:41;16.50;;;10.63;;
14933;SDS011;7560;51.364;12.384;2022-09-30T00:40:43;14.38;;;10.57;;
14933;SDS011;7560;51.364;12.384;2022-09-30T00:45:55;15.05;;;10.15;;
14933;SDS011;7560;51.364;12.384;2022-09-30T00:50:59;14.73;;;10.45;;
14933;SDS011;7560;51.364;12.384;2022-09-30T00:56:09;12.88;;;10.10;;
14933;SDS011;7560;51.364;12.384;2022-09-30T01:01:23;14.65;;;10.25;;
14933;SDS011;7560;51.364;12.384;2022-09-30T01:06:25;13.85;;;10.15;;
14933;SDS011;7560;51.364;12.384;2022-09-30T01:11:27;15.50;;;10.38;;
14933;SDS011;7560;51.364;12.384;2022-09-30T01:42:46;14.13;;;10.65;;
14933;SDS011;7560;51.364;12.384;2022-09-30T01:48:29;14.93;;;10.77;;
14933;SDS011;7560;51.364;12.384;2022-09-30T01:53:24;18.48;;;11.38;;
14933;SDS011;7560;51.364;12.384;2022-09-30T01:58:52;17.35;;;11.13;;
14933;SDS011;7560;51.364;12.384;2022-09-30T02:04:00;14.40;;;10.48;;
14933;SDS011;7560;51.364;12.384;2022-09-30T02:14:18;19.92;;;11.25;;
14933;SDS011;7560;51.364;12.384;2022-09-30T02:19:43;15.73;;;10.90;;
14933;SDS011;7560;51.364;12.384;2022-09-30T02:24:46;17.27;;;11.80;;
14933;SDS011;7560;51.364;12.384;2022-09-30T02:29:52;18.35;;;12.43;;
14933;SDS011;7560;51.364;12.384;2022-09-30T02:34:59;17.73;;;11.65;;
14933;SDS011;7560;51.364;12.384;2022-09-30T02:40:21;18.40;;;12.30;;
14933;SDS011;7560;51.364;12.384;2022-09-30T02:51:32;19.48;;;12.90;;
14933;SDS011;7560;51.364;12.384;2022-09-30T02:56:52;17.75;;;12.63;;
14933;SDS011;7560;51.364;12.384;2022-09-30T03:02:19;20.02;;;13.35;;
14933;SDS011;7560;51.364;12.384;2022-09-30T03:07:21;18.92;;;13.32;;
14933;SDS011;7560;51.364;12.384;2022-09-30T03:28:24;22.73;;;12.50;;
14933;SDS011;7560;51.364;12.384;2022-09-30T03:33:54;17.23;;;11.85;;
14933;SDS011;7560;51.364;12.384;2022-09-30T03:39:06;19.52;;;12.82;;
14933;SDS011;7560;51.364;12.384;2022-09-30T03:44:22;15.68;;;11.55;;
14933;SDS011;7560;51.364;12.384;2022-09-30T03:49:48;17.30;;;11.77;;
14933;SDS011;7560;51.364;12.384;2022-09-30T03:54:59;16.95;;;11.82;;
14933;SDS011;7560;51.364;12.384;2022-09-30T04:00:04;19.85;;;12.65;;
14933;SDS011;7560;51.364;12.384;2022-09-30T04:05:07;17.25;;;11.98;;
14933;SDS011;7560;51.364;12.384;2022-09-30T04:10:08;18.90;;;12.68;;
14933;SDS011;7560;51.364;12.384;2022-09-30T04:15:11;17.45;;;12.00;;
14933;SDS011;7560;51.364;12.384;2022-09-30T04:20:13;17.42;;;11.80;;
14933;SDS011;7560;51.364;12.384;2022-09-30T04:25:15;17.15;;;11.82;;
14933;SDS011;7560;51.364;12.384;2022-09-30T04:30:17;18.73;;;13.05;;
14933;SDS011;7560;51.364;12.384;2022-09-30T04:35:25;18.98;;;13.07;;
14933;SDS011;7560;51.364;12.384;2022-09-30T04:40:29;19.35;;;12.38;;
14933;SDS011;7560;51.364;12.384;2022-09-30T04:45:31;17.80;;;12.57;;
14933;SDS011;7560;51.364;12.384;2022-09-30T04:50:33;20.08;;;12.93;;
14933;SDS011;7560;51.364;12.384;2022-09-30T04:55:34;19.25;;;12.40;;
14933;SDS011;7560;51.364;12.384;2022-09-30T05:00:36;18.80;;;11.77;;
14933;SDS011;7560;51.364;12.384;2022-09-30T05:05:42;20.55;;;12.40;;
14933;SDS011;7560;51.364;12.384;2022-09-30T05:10:51;20.58;;;11.93;;
14933;SDS011;7560;51.364;12.384;2022-09-30T05:15:55;17.73;;;12.25;;
14933;SDS011;7560;51.364;12.384;2022-09-30T05:20:57;26.50;;;16.45;;
14933;SDS011;7560;51.364;12.384;2022-09-30T05:25:59;24.52;;;16.05;;
14933;SDS011;7560;51.364;12.384;2022-09-30T05:31:02;20.90;;;12.80;;
14933;SDS011;7560;51.364;12.384;2022-09-30T05:36:06;20.50;;;13.15;;
14933;SDS011;7560;51.364;12.384;2022-09-30T05:41:10;23.02;;;13.65;;
14933;SDS011;7560;51.364;12.384;2022-09-30T05:46:17;25.02;;;13.48;;
14933;SDS011;7560;51.364;12.384;2022-09-30T05:51:20;19.45;;;12.73;;
14933;SDS011;7560;51.364;12.384;2022-09-30T05:56:22;22.55;;;14.65;;
14933;SDS011;7560;51.364;12.384;2022-09-30T06:01:23;20.27;;;13.05;;
14933;SDS011;7560;51.364;12.384;2022-09-30T06:06:25;18.15;;;12.25;;
14933;SDS011;7560;51.364;12.384;2022-09-30T06:11:27;23.30;;;12.95;;
14933;SDS011;7560;51.364;12.384;2022-09-30T06:16:28;16.98;;;11.18;;
14933;SDS011;7560;51.364;12.384;2022-09-30T06:21:32;18.88;;;11.35;;
14933;SDS011;7560;51.364;12.384;2022-09-30T06:26:33;16.45;;;10.77;;
14933;SDS011;7560;51.364;12.384;2022-09-30T06:31:35;15.13;;;10.45;;
14933;SDS011;7560;51.364;12.384;2022-09-30T06:36:37;15.10;;;11.10;;
14933;SDS011;7560;51.364;12.384;2022-09-30T06:41:39;15.77;;;10.90;;
14933;SDS011;7560;51.364;12.384;2022-09-30T06:46:44;19.38;;;10.68;;
14933;SDS011;7560;51.364;12.384;2022-09-30T06:51:54;15.68;;;10.20;;
14933;SDS011;7560;51.364;12.384;2022-09-30T06:56:56;15.80;;;10.95;;
14933;SDS011;7560;51.364;12.384;2022-09-30T07:01:57;15.82;;;11.43;;
14933;SDS011;7560;51.364;12.384;2022-09-30T07:06:59;14.50;;;10.32;;
14933;SDS011;7560;51.364;12.384;2022-09-30T07:12:01;16.98;;;10.73;;
14933;SDS011;7560;51.364;12.384;2022-09-30T07:17:03;18.02;;;10.77;;
14933;SDS011;7560;51.364;12.384;2022-09-30T07:22:06;14.88;;;10.85;;
14933;SDS011;7560;51.364;12.384;2022-09-30T07:27:26;16.33;;;11.00;;
14933;SDS011;7560;51.364;12.384;2022-09-30T07:32:29;17.23;;;11.68;;
14933;SDS011;7560;51.364;12.384;2022-09-30T07:37:31;18.52;;;11.60;;
14933;SDS011;7560;51.364;12.384;2022-09-30T07:42:36;17.42;;;12.10;;
14933;SDS011;7560;51.364;12.384;2022-09-30T07:47:45;18.77;;;11.18;;
14933;SDS011;7560;51.364;12.384;2022-09-30T07:52:53;17.13;;;11.02;;
14933;SDS011;7560;51.364;12.384;2022-09-30T07:57:56;14.80;;;10.43;;
14933;SDS011;7560;51.364;12.384;2022-09-30T08:02:58;17.70;;;11.00;;
14933;SDS011;7560;51.364;12.384;2022-09-30T08:07:59;15.43;;;10.57;;
14933;SDS011;7560;51.364;12.384;2022-09-30T08:13:01;17.67;;;10.75;;
14933;SDS011;7560;51.364;12.384;2022-09-30T08:18:06;15.23;;;10.23;;
14933;SDS011;7560;51.364;12.384;2022-09-30T08:23:08;16.95;;;11.05;;
14933;SDS011;7560;51.364;12.384;2022-09-30T08:28:10;13.90;;;9.65;;
14933;SDS011;7560;51.364;12.384;2022-09-30T08:33:12;14.30;;;9.93;;
14933;SDS011;7560;51.364;12.384;2022-09-30T08:38:14;12.85;;;9.30;;
14933;SDS011;7560;51.364;12.384;2022-09-30T08:43:26;12.05;;;9.07;;
14933;SDS011;7560;51.364;12.384;2022-09-30T08:53:40;10.35;;;7.75;;
14933;SDS011;7560;51.364;12.384;2022-09-30T08:58:43;11.05;;;7.50;;
14933;SDS011;7560;51.364;12.384;2022-09-30T09:03:47;9.90;;;7.25;;
14933;SDS011;7560;51.364;12.384;2022-09-30T09:14:08;9.10;;;6.70;;
14933;SDS011;7560;51.364;12.384;2022-09-30T09:19:25;10.65;;;6.97;;
14933;SDS011;7560;51.364;12.384;2022-09-30T09:24:39;8.55;;;6.32;;
14933;SDS011;7560;51.364;12.384;2022-09-30T09:30:50;10.85;;;6.80;;
14933;SDS011;7560;51.364;12.384;2022-09-30T09:35:43;9.30;;;5.97;;
14933;SDS011;7560;51.364;12.384;2022-09-30T09:57:06;11.50;;;5.65;;
14933;SDS011;7560;51.364;12.384;2022-09-30T10:02:22;10.20;;;6.10;;
14933;SDS011;7560;51.364;12.384;2022-09-30T10:07:32;7.97;;;5.82;;
14933;SDS011;7560;51.364;12.384;2022-09-30T10:12:34;8.27;;;5.90;;
14933;SDS011;7560;51.364;12.384;2022-09-30T10:17:36;7.78;;;5.70;;
14933;SDS011;7560;51.364;12.384;2022-09-30T10:22:38;7.00;;;5.30;;
14933;SDS011;7560;51.364;12.384;2022-09-30T10:32:53;5.72;;;4.90;;
14933;SDS011;7560;51.364;12.384;2022-09-30T10:37:55;5.97;;;4.45;;
14933;SDS011;7560;51.364;12.384;2022-09-30T10:42:59;6.80;;;4.07;;
14933;SDS011;7560;51.364;12.384;2022-09-30T10:48:02;5.57;;;4.10;;
14933;SDS011;7560;51.364;12.384;2022-09-30T10:53:12;9.25;;;5.68;;
14933;SDS011;7560;51.364;12.384;2022-09-30T11:03:28;6.32;;;4.00;;
14933;SDS011;7560;51.364;12.384;2022-09-30T11:08:36;3.30;;;3.00;;
14933;SDS011;7560;51.364;12.384;2022-09-30T11:13:49;7.13;;;3.50;;
14933;SDS011;7560;51.364;12.384;2022-09-30T11:24:20;5.93;;;4.65;;
14933;SDS011;7560;51.364;12.384;2022-09-30T11:40:29;9.20;;;5.95;;
14933;SDS011;7560;51.364;12.384;2022-09-30T11:45:40;7.78;;;4.93;;
14933;SDS011;7560;51.364;12.384;2022-09-30T11:51:08;5.78;;;4.18;;
14933;SDS011;7560;51.364;12.384;2022-09-30T12:01:41;4.45;;;4.05;;
14933;SDS011;7560;51.364;12.384;2022-09-30T12:06:53;5.20;;;4.70;;
14933;SDS011;7560;51.364;12.384;2022-09-30T12:12:06;6.10;;;4.68;;
14933;SDS011;7560;51.364;12.384;2022-09-30T12:22:31;7.53;;;5.28;;
14933;SDS011;7560;51.364;12.384;2022-09-30T12:27:41;6.50;;;5.53;;
14933;SDS011;7560;51.364;12.384;2022-09-30T12:49:04;6.22;;;4.10;;
14933;SDS011;7560;51.364;12.384;2022-09-30T12:54:13;4.35;;;3.80;;
14933;SDS011;7560;51.364;12.384;2022-09-30T12:59:23;6.63;;;3.63;;
14933;SDS011;7560;51.364;12.384;2022-09-30T13:04:31;3.83;;;3.42;;
14933;SDS011;7560;51.364;12.384;2022-09-30T13:09:35;4.13;;;3.35;;
14933;SDS011;7560;51.364;12.384;2022-09-30T13:14:41;4.05;;;3.65;;
14933;SDS011;7560;51.364;12.384;2022-09-30T13:19:47;6.53;;;4.00;;
14933;SDS011;7560;51.364;12.384;2022-09-30T13:40:34;4.07;;;3.67;;
14933;SDS011;7560;51.364;12.384;2022-09-30T13:46:03;4.50;;;3.80;;
14933;SDS011;7560;51.364;12.384;2022-09-30T13:51:23;4.93;;;3.85;;
14933;SDS011;7560;51.364;12.384;2022-09-30T13:56:29;6.10;;;4.03;;
14933;SDS011;7560;51.364;12.384;2022-09-30T14:22:46;4.65;;;4.20;;
14933;SDS011;7560;51.364;12.384;2022-09-30T14:28:05;5.38;;;3.92;;
14933;SDS011;7560;51.364;12.384;2022-09-30T14:33:19;5.50;;;4.07;;
14933;SDS011;7560;51.364;12.384;2022-09-30T14:38:25;4.63;;;4.22;;
14933;SDS011;7560;51.364;12.384;2022-09-30T14:43:30;5.47;;;3.97;;
14933;SDS011;7560;51.364;12.384;2022-09-30T14:48:42;3.95;;;3.25;;
14933;SDS011;7560;51.364;12.384;2022-09-30T14:58:58;4.32;;;3.00;;
14933;SDS011;7560;51.364;12.384;2022-09-30T15:04:04;4.22;;;2.65;;
14933;SDS011;7560;51.364;12.384;2022-09-30T15:14:21;2.60;;;2.40;;
14933;SDS011;7560;51.364;12.384;2022-09-30T15:19:24;2.42;;;2.22;;
14933;SDS011;7560;51.364;12.384;2022-09-30T15:24:28;4.50;;;2.20;;
14933;SDS011;7560;51.364;12.384;2022-09-30T15:29:32;3.55;;;2.08;;
14933;SDS011;7560;51.364;12.384;2022-09-30T15:34:34;2.33;;;1.90;;
14933;SDS011;7560;51.364;12.384;2022-09-30T15:39:39;2.85;;;2.45;;
14933;SDS011;7560;51.364;12.384;2022-09-30T15:45:22;3.30;;;2.15;;
14933;SDS011;7560;51.364;12.384;2022-09-30T15:50:45;3.95;;;2.00;;
14933;SDS011;7560;51.364;12.384;2022-09-30T15:55:49;3.17;;;2.10;;
14933;SDS011;7560;51.364;12.384;2022-09-30T16:00:52;2.10;;;1.90;;
14933;SDS011;7560;51.364;12.384;2022-09-30T16:06:10;2.63;;;2.42;;
14933;SDS011;7560;51.364;12.384;2022-09-30T16:11:22;4.72;;;3.17;;
14933;SDS011;7560;51.364;12.384;2022-09-30T16:16:29;6.85;;;3.58;;
14933;SDS011;7560;51.364;12.384;2022-09-30T16:26:45;5.80;;;3.95;;
14933;SDS011;7560;51.364;12.384;2022-09-30T16:31:48;3.65;;;2.92;;
14933;SDS011;7560;51.364;12.384;2022-09-30T16:36:52;3.60;;;2.90;;
14933;SDS011;7560;51.364;12.384;2022-09-30T16:41:55;5.53;;;2.88;;
14933;SDS011;7560;51.364;12.384;2022-09-30T16:46:57;6.28;;;4.53;;
14933;SDS011;7560;51.364;12.384;2022-09-30T16:51:59;8.52;;;4.32;;
14933;SDS011;7560;51.364;12.384;2022-09-30T16:57:01;8.73;;;6.03;;
14933;SDS011;7560;51.364;12.384;2022-09-30T17:02:03;9.02;;;5.75;;
14933;SDS011;7560;51.364;12.384;2022-09-30T17:07:08;11.38;;;6.93;;
14933;SDS011;7560;51.364;12.384;2022-09-30T17:12:11;14.10;;;8.45;;
14933;SDS011;7560;51.364;12.384;2022-09-30T17:17:13;18.60;;;9.48;;
14933;SDS011;7560;51.364;12.384;2022-09-30T17:22:14;22.42;;;12.90;;
14933;SDS011;7560;51.364;12.384;2022-09-30T17:27:16;28.42;;;17.23;;
14933;SDS011;7560;51.364;12.384;2022-09-30T17:32:18;27.55;;;14.05;;
14933;SDS011;7560;51.364;12.384;2022-09-30T17:37:20;25.13;;;14.13;;
14933;SDS011;7560;51.364;12.384;2022-09-30T17:42:22;20.77;;;11.07;;
14933;SDS011;7560;51.364;12.384;2022-09-30T17:47:42;20.80;;;11.30;;
14933;SDS011;7560;51.364;12.384;2022-09-30T17:52:44;17.25;;;9.75;;
14933;SDS011;7560;51.364;12.384;2022-09-30T17:57:45;14.90;;;8.63;;
14933;SDS011;7560;51.364;12.384;2022-09-30T18:02:47;14.98;;;9.27;;
14933;SDS011;7560;51.364;12.384;2022-09-30T18:07:49;14.90;;;8.90;;
14933;SDS011;7560;51.364;12.384;2022-09-30T18:12:51;20.27;;;10.20;;
14933;SDS011;7560;51.364;12.384;2022-09-30T18:17:54;24.98;;;13.88;;
14933;SDS011;7560;51.364;12.384;2022-09-30T18:22:56;20.60;;;11.75;;
14933;SDS011;7560;51.364;12.384;2022-09-30T18:27:58;18.02;;;11.00;;
14933;SDS011;7560;51.364;12.384;2022-09-30T18:33:00;15.43;;;9.52;;
14933;SDS011;7560;51.364;12.384;2022-09-30T18:38:03;16.50;;;10.60;;
14933;SDS011;7560;51.364;12.384;2022-09-30T18:43:06;16.70;;;10.35;;
14933;SDS011;7560;51.364;12.384;2022-09-30T18:48:13;17.95;;;10.77;;
14933;SDS011;7560;51.364;12.384;2022-09-30T18:53:17;18.13;;;12.30;;
14933;SDS011;7560;51.364;12.384;2022-09-30T18:58:22;26.92;;;17.83;;
14933;SDS011;7560;51.364;12.384;2022-09-30T19:03:26;37.33;;;27.23;;
14933;SDS011;7560;51.364;12.384;2022-09-30T19:08:29;60.70;;;40.42;;
14933;SDS011;7560;51.364;12.384;2022-09-30T19:13:31;24.48;;;16.17;;
14933;SDS011;7560;51.364;12.384;2022-09-30T19:18:32;52.70;;;33.40;;
14933;SDS011;7560;51.364;12.384;2022-09-30T19:23:34;73.60;;;44.47;;
14933;SDS011;7560;51.364;12.384;2022-09-30T19:28:36;29.42;;;20.60;;
14933;SDS011;7560;51.364;12.384;2022-09-30T19:33:38;37.97;;;24.65;;
14933;SDS011;7560;51.364;12.384;2022-09-30T19:38:52;35.42;;;24.95;;
14933;SDS011;7560;51.364;12.384;2022-09-30T19:44:12;30.85;;;22.33;;
14933;SDS011;7560;51.364;12.384;2022-09-30T19:49:18;39.42;;;25.02;;
14933;SDS011;7560;51.364;12.384;2022-09-30T19:54:22;35.80;;;24.92;;
14933;SDS011;7560;51.364;12.384;2022-09-30T19:59:38;38.90;;;24.98;;
14933;SDS011;7560;51.364;12.384;2022-09-30T20:04:39;37.50;;;26.30;;
14933;SDS011;7560;51.364;12.384;2022-09-30T20:09:42;38.47;;;27.27;;
14933;SDS011;7560;51.364;12.384;2022-09-30T20:14:44;57.33;;;38.85;;
14933;SDS011;7560;51.364;12.384;2022-09-30T20:20:04;47.08;;;32.70;;
14933;SDS011;7560;51.364;12.384;2022-09-30T20:25:25;48.72;;;33.42;;
14933;SDS011;7560;51.364;12.384;2022-09-30T20:30:26;39.80;;;27.42;;
14933;SDS011;7560;51.364;12.384;2022-09-30T20:35:33;33.20;;;22.13;;
14933;SDS011;7560;51.364;12.384;2022-09-30T20:40:35;31.95;;;21.92;;
14933;SDS011;7560;51.364;12.384;2022-09-30T20:45:37;35.30;;;21.70;;
14933;SDS011;7560;51.364;12.384;2022-09-30T20:50:41;27.95;;;20.25;;
14933;SDS011;7560;51.364;12.384;2022-09-30T20:55:45;30.13;;;20.50;;
14933;SDS011;7560;51.364;12.384;2022-09-30T21:00:46;31.48;;;20.60;;
14933;SDS011;7560;51.364;12.384;2022-09-30T21:05:51;28.33;;;19.08;;
14933;SDS011;7560;51.364;12.384;2022-09-30T21:10:53;29.65;;;20.85;;
14933;SDS011;7560;51.364;12.384;2022-09-30T21:15:57;29.35;;;19.77;;
14933;SDS011;7560;51.364;12.384;2022-09-30T21:21:02;27.98;;;19.20;;
14933;SDS011;7560;51.364;12.384;2022-09-30T21:26:06;29.80;;;19.50;;
14933;SDS011;7560;51.364;12.384;2022-09-30T21:31:15;27.20;;;19.48;;
14933;SDS011;7560;51.364;12.384;2022-09-30T21:36:21;26.08;;;18.80;;
14933;SDS011;7560;51.364;12.384;2022-09-30T21:41:24;27.90;;;18.70;;
14933;SDS011;7560;51.364;12.384;2022-09-30T21:46:25;27.02;;;18.73;;
14933;SDS011;7560;51.364;12.384;2022-09-30T21:51:27;26.38;;;17.58;;
14933;SDS011;7560;51.364;12.384;2022-09-30T21:56:34;24.73;;;16.42;;
14933;SDS011;7560;51.364;12.384;2022-09-30T22:01:37;22.00;;;14.52;;
14933;SDS011;7560;51.364;12.384;2022-09-30T22:06:39;23.52;;;14.68;;
14933;SDS011;7560;51.364;12.384;2022-09-30T22:11:41;20.52;;;14.50;;
14933;SDS011;7560;51.364;12.384;2022-09-30T22:16:43;21.58;;;14.70;;
14933;SDS011;7560;51.364;12.384;2022-09-30T22:21:45;20.30;;;14.13;;
14933;SDS011;7560;51.364;12.384;2022-09-30T22:26:47;20.80;;;14.23;;
14933;SDS011;7560;51.364;12.384;2022-09-30T22:31:49;23.88;;;14.52;;
14933;SDS011;7560;51.364;12.384;2022-09-30T22:36:51;20.40;;;14.85;;
14933;SDS011;7560;51.364;12.384;2022-09-30T22:42:11;20.10;;;14.25;;
14933;SDS011;7560;51.364;12.384;2022-09-30T22:47:13;21.33;;;14.65;;
14933;SDS011;7560;51.364;12.384;2022-09-30T22:52:15;22.20;;;14.10;;
14933;SDS011;7560;51.364;12.384;2022-09-30T22:57:16;21.50;;;14.02;;
14933;SDS011;7560;51.364;12.384;2022-09-30T23:02:18;17.52;;;12.40;;
14933;SDS011;7560;51.364;12.384;2022-09-30T23:07:22;21.80;;;13.50;;
14933;SDS011;7560;51.364;12.384;2022-09-30T23:12:23;22.23;;;14.68;;
14933;SDS011;7560;51.364;12.384;2022-09-30T23:17:25;24.48;;;14.40;;
14933;SDS011;7560;51.364;12.384;2022-09-30T23:22:27;23.00;;;14.50;;
14933;SDS011;7560;51.364;12.384;2022-09-30T23:27:28;22.30;;;13.13;;
14933;SDS011;7560;51.364;12.384;2022-09-30T23:32:30;18.23;;;13.55;;
14933;SDS011;7560;51.364;12.384;2022-09-30T23:37:32;21.63;;;13.80;;
14933;SDS011;7560;51.364;12.384;2022-09-30T23:42:33;16.55;;;11.93;;
14933;SDS011;7560;51.364;12.384;2022-09-30T23:47:35;14.10;;;10.68;;
14933;SDS011;7560;51.364;12.384;2022-09-30T23:52:37;17.27;;;10.68;;
14933;SDS011;7560;51.364;12.384;2022-09-30T23:57:39;14.57;;;9.57;;
